sensor_id;sensor_type;location;lat;lon;timestamp;P1;durP1;ratioP1;P2;durP2;ratioP2
21430;SDS011;10876;49.038;10.608;2023-07-24T00:01:00;11.43;;;5.45;;
21430;SDS011;10876;49.038;10.608;2023-07-24T00:03:26;11.35;;;4.55;;
21430;SDS011;10876;49.038;10.608;2023-07-24T00:05:53;9.35;;;5.18;;
21430;SDS011;10876;49.038;10.608;2023-07-24T00:08:25;10.15;;;5.05;;
21430;SDS011;10876;49.038;10.608;2023-07-24T00:10:51;9.15;;;4.85;;
21430;SDS011;10876;49.038;10.608;2023-07-24T00:13:18;9.93;;;5.70;;
21430;SDS011;10876;49.038;10.608;2023-07-24T00:15:45;11.65;;;5.47;;
21430;SDS011;10876;49.038;10.608;2023-07-24T00:18:12;9.95;;;4.75;;
21430;SDS011;10876;49.038;10.608;2023-07-24T00:20:38;12.25;;;4.88;;
21430;SDS011;10876;49.038;10.608;2023-07-24T00:23:05;14.50;;;5.15;;
21430;SDS011;10876;49.038;10.608;2023-07-24T00:25:33;10.82;;;5.35;;
21430;SDS011;10876;49.038;10.608;2023-07-24T00:28:00;10.23;;;4.93;;
21430;SDS011;10876;49.038;10.608;2023-07-24T00:30:26;9.50;;;5.10;;
21430;SDS011;10876;49.038;10.608;2023-07-24T00:32:53;11.75;;;5.15;;
21430;SDS011;10876;49.038;10.608;2023-07-24T00:35:19;10.10;;;5.03;;
21430;SDS011;10876;49.038;10.608;2023-07-24T00:37:46;9.70;;;4.93;;
21430;SDS011;10876;49.038;10.608;2023-07-24T00:40:13;8.43;;;4.65;;
21430;SDS011;10876;49.038;10.608;2023-07-24T00:42:41;13.95;;;5.10;;
21430;SDS011;10876;49.038;10.608;2023-07-24T00:45:12;10.60;;;5.15;;
21430;SDS011;10876;49.038;10.608;2023-07-24T00:47:39;9.10;;;5.15;;
21430;SDS011;10876;49.038;10.608;2023-07-24T00:50:07;10.13;;;5.18;;
21430;SDS011;10876;49.038;10.608;2023-07-24T00:52:34;11.95;;;5.95;;
21430;SDS011;10876;49.038;10.608;2023-07-24T00:55:01;9.30;;;4.90;;
21430;SDS011;10876;49.038;10.608;2023-07-24T00:57:28;11.25;;;5.00;;
21430;SDS011;10876;49.038;10.608;2023-07-24T00:59:56;13.70;;;5.00;;
21430;SDS011;10876;49.038;10.608;2023-07-24T01:02:22;9.63;;;4.88;;
21430;SDS011;10876;49.038;10.608;2023-07-24T01:04:49;10.10;;;5.22;;
21430;SDS011;10876;49.038;10.608;2023-07-24T01:07:16;11.27;;;5.95;;
21430;SDS011;10876;49.038;10.608;2023-07-24T01:09:43;12.32;;;5.65;;
21430;SDS011;10876;49.038;10.608;2023-07-24T01:12:13;12.25;;;5.13;;
21430;SDS011;10876;49.038;10.608;2023-07-24T01:14:46;11.32;;;4.50;;
21430;SDS011;10876;49.038;10.608;2023-07-24T01:17:18;9.70;;;5.05;;
21430;SDS011;10876;49.038;10.608;2023-07-24T01:19:50;10.85;;;5.68;;
21430;SDS011;10876;49.038;10.608;2023-07-24T01:22:24;10.70;;;5.03;;
21430;SDS011;10876;49.038;10.608;2023-07-24T01:25:00;9.02;;;5.47;;
21430;SDS011;10876;49.038;10.608;2023-07-24T01:27:37;14.38;;;5.47;;
21430;SDS011;10876;49.038;10.608;2023-07-24T01:30:07;11.05;;;5.45;;
21430;SDS011;10876;49.038;10.608;2023-07-24T01:32:35;13.10;;;5.72;;
21430;SDS011;10876;49.038;10.608;2023-07-24T01:35:02;10.82;;;5.35;;
21430;SDS011;10876;49.038;10.608;2023-07-24T01:37:29;9.45;;;5.43;;
21430;SDS011;10876;49.038;10.608;2023-07-24T01:39:57;12.18;;;5.47;;
21430;SDS011;10876;49.038;10.608;2023-07-24T01:42:25;11.23;;;5.32;;
21430;SDS011;10876;49.038;10.608;2023-07-24T01:44:54;10.90;;;5.28;;
21430;SDS011;10876;49.038;10.608;2023-07-24T01:47:21;9.52;;;5.28;;
21430;SDS011;10876;49.038;10.608;2023-07-24T01:49:48;12.23;;;5.30;;
21430;SDS011;10876;49.038;10.608;2023-07-24T01:52:15;10.55;;;5.20;;
21430;SDS011;10876;49.038;10.608;2023-07-24T01:54:41;8.93;;;4.82;;
21430;SDS011;10876;49.038;10.608;2023-07-24T01:57:08;11.80;;;5.07;;
21430;SDS011;10876;49.038;10.608;2023-07-24T01:59:35;10.35;;;5.13;;
21430;SDS011;10876;49.038;10.608;2023-07-24T02:02:03;12.20;;;5.40;;
21430;SDS011;10876;49.038;10.608;2023-07-24T02:04:30;8.70;;;5.20;;
21430;SDS011;10876;49.038;10.608;2023-07-24T02:06:56;11.30;;;5.35;;
21430;SDS011;10876;49.038;10.608;2023-07-24T02:09:23;9.85;;;5.30;;
21430;SDS011;10876;49.038;10.608;2023-07-24T02:11:50;9.45;;;5.32;;
21430;SDS011;10876;49.038;10.608;2023-07-24T02:14:17;9.52;;;5.20;;
21430;SDS011;10876;49.038;10.608;2023-07-24T02:16:45;8.65;;;4.82;;
21430;SDS011;10876;49.038;10.608;2023-07-24T02:19:13;12.85;;;5.68;;
21430;SDS011;10876;49.038;10.608;2023-07-24T02:21:40;8.80;;;4.78;;
21430;SDS011;10876;49.038;10.608;2023-07-24T02:24:07;9.13;;;5.28;;
21430;SDS011;10876;49.038;10.608;2023-07-24T02:26:34;13.95;;;5.18;;
21430;SDS011;10876;49.038;10.608;2023-07-24T02:29:00;10.38;;;5.28;;
21430;SDS011;10876;49.038;10.608;2023-07-24T02:31:27;8.77;;;4.75;;
21430;SDS011;10876;49.038;10.608;2023-07-24T02:33:54;8.85;;;4.70;;
21430;SDS011;10876;49.038;10.608;2023-07-24T02:36:22;10.57;;;4.93;;
21430;SDS011;10876;49.038;10.608;2023-07-24T02:38:48;9.98;;;5.10;;
21430;SDS011;10876;49.038;10.608;2023-07-24T02:41:15;10.63;;;5.35;;
21430;SDS011;10876;49.038;10.608;2023-07-24T02:43:42;11.73;;;5.85;;
21430;SDS011;10876;49.038;10.608;2023-07-24T02:46:08;10.75;;;5.07;;
21430;SDS011;10876;49.038;10.608;2023-07-24T02:48:35;10.85;;;5.25;;
21430;SDS011;10876;49.038;10.608;2023-07-24T02:51:02;9.15;;;5.00;;
21430;SDS011;10876;49.038;10.608;2023-07-24T02:53:30;9.10;;;4.68;;
21430;SDS011;10876;49.038;10.608;2023-07-24T02:55:57;13.15;;;5.78;;
21430;SDS011;10876;49.038;10.608;2023-07-24T02:58:23;9.88;;;5.20;;
21430;SDS011;10876;49.038;10.608;2023-07-24T03:00:50;10.65;;;5.45;;
21430;SDS011;10876;49.038;10.608;2023-07-24T03:03:17;14.77;;;5.78;;
21430;SDS011;10876;49.038;10.608;2023-07-24T03:05:43;11.73;;;5.85;;
21430;SDS011;10876;49.038;10.608;2023-07-24T03:08:10;10.93;;;5.70;;
21430;SDS011;10876;49.038;10.608;2023-07-24T03:10:45;12.73;;;5.65;;
21430;SDS011;10876;49.038;10.608;2023-07-24T03:13:11;10.75;;;5.43;;
21430;SDS011;10876;49.038;10.608;2023-07-24T03:15:38;10.15;;;5.50;;
21430;SDS011;10876;49.038;10.608;2023-07-24T03:18:05;10.60;;;5.15;;
21430;SDS011;10876;49.038;10.608;2023-07-24T03:20:31;10.18;;;5.53;;
21430;SDS011;10876;49.038;10.608;2023-07-24T03:22:58;11.75;;;5.93;;
21430;SDS011;10876;49.038;10.608;2023-07-24T03:25:25;13.30;;;6.28;;
21430;SDS011;10876;49.038;10.608;2023-07-24T03:27:53;11.23;;;5.38;;
21430;SDS011;10876;49.038;10.608;2023-07-24T03:30:19;11.63;;;5.50;;
21430;SDS011;10876;49.038;10.608;2023-07-24T03:32:46;12.52;;;5.68;;
21430;SDS011;10876;49.038;10.608;2023-07-24T03:35:13;11.40;;;5.72;;
21430;SDS011;10876;49.038;10.608;2023-07-24T03:37:39;11.68;;;5.70;;
21430;SDS011;10876;49.038;10.608;2023-07-24T03:40:07;10.25;;;5.38;;
21430;SDS011;10876;49.038;10.608;2023-07-24T03:42:34;9.32;;;5.30;;
21430;SDS011;10876;49.038;10.608;2023-07-24T03:45:02;13.73;;;5.50;;
21430;SDS011;10876;49.038;10.608;2023-07-24T03:47:29;12.93;;;5.57;;
21430;SDS011;10876;49.038;10.608;2023-07-24T03:49:56;11.25;;;5.38;;
21430;SDS011;10876;49.038;10.608;2023-07-24T03:52:23;10.60;;;5.50;;
21430;SDS011;10876;49.038;10.608;2023-07-24T03:54:50;11.02;;;5.95;;
21430;SDS011;10876;49.038;10.608;2023-07-24T03:57:17;10.52;;;5.78;;
21430;SDS011;10876;49.038;10.608;2023-07-24T03:59:44;11.60;;;5.30;;
21430;SDS011;10876;49.038;10.608;2023-07-24T04:02:12;11.95;;;6.07;;
21430;SDS011;10876;49.038;10.608;2023-07-24T04:04:39;12.40;;;6.22;;
21430;SDS011;10876;49.038;10.608;2023-07-24T04:07:05;11.00;;;6.28;;
21430;SDS011;10876;49.038;10.608;2023-07-24T04:09:32;10.35;;;5.97;;
21430;SDS011;10876;49.038;10.608;2023-07-24T04:11:59;16.55;;;6.50;;
21430;SDS011;10876;49.038;10.608;2023-07-24T04:14:27;12.18;;;5.90;;
21430;SDS011;10876;49.038;10.608;2023-07-24T04:16:53;10.88;;;5.55;;
21430;SDS011;10876;49.038;10.608;2023-07-24T04:19:22;13.20;;;5.72;;
21430;SDS011;10876;49.038;10.608;2023-07-24T04:21:49;10.48;;;5.50;;
21430;SDS011;10876;49.038;10.608;2023-07-24T04:24:15;13.55;;;5.90;;
21430;SDS011;10876;49.038;10.608;2023-07-24T04:26:42;11.88;;;5.10;;
21430;SDS011;10876;49.038;10.608;2023-07-24T04:29:08;12.30;;;6.13;;
21430;SDS011;10876;49.038;10.608;2023-07-24T04:31:35;10.57;;;5.35;;
21430;SDS011;10876;49.038;10.608;2023-07-24T04:34:02;9.88;;;5.20;;
21430;SDS011;10876;49.038;10.608;2023-07-24T04:36:30;10.80;;;5.47;;
21430;SDS011;10876;49.038;10.608;2023-07-24T04:38:57;11.00;;;5.93;;
21430;SDS011;10876;49.038;10.608;2023-07-24T04:41:23;12.60;;;6.13;;
21430;SDS011;10876;49.038;10.608;2023-07-24T04:43:50;9.77;;;5.13;;
21430;SDS011;10876;49.038;10.608;2023-07-24T04:46:17;9.82;;;5.13;;
21430;SDS011;10876;49.038;10.608;2023-07-24T04:55:00;11.98;;;5.13;;
21430;SDS011;10876;49.038;10.608;2023-07-24T04:57:31;12.30;;;6.07;;
21430;SDS011;10876;49.038;10.608;2023-07-24T04:59:58;10.57;;;5.32;;
21430;SDS011;10876;49.038;10.608;2023-07-24T05:02:25;13.18;;;5.30;;
21430;SDS011;10876;49.038;10.608;2023-07-24T05:04:51;9.60;;;5.15;;
21430;SDS011;10876;49.038;10.608;2023-07-24T05:07:18;10.02;;;4.88;;
21430;SDS011;10876;49.038;10.608;2023-07-24T05:09:46;11.30;;;5.50;;
21430;SDS011;10876;49.038;10.608;2023-07-24T05:12:13;10.95;;;5.68;;
21430;SDS011;10876;49.038;10.608;2023-07-24T05:14:40;10.75;;;5.32;;
21430;SDS011;10876;49.038;10.608;2023-07-24T05:17:06;10.95;;;5.30;;
21430;SDS011;10876;49.038;10.608;2023-07-24T05:19:33;9.25;;;5.00;;
21430;SDS011;10876;49.038;10.608;2023-07-24T05:22:00;9.82;;;5.07;;
21430;SDS011;10876;49.038;10.608;2023-07-24T05:24:26;9.85;;;5.22;;
21430;SDS011;10876;49.038;10.608;2023-07-24T05:26:54;11.60;;;5.05;;
21430;SDS011;10876;49.038;10.608;2023-07-24T05:29:21;10.70;;;5.40;;
21430;SDS011;10876;49.038;10.608;2023-07-24T05:31:48;10.27;;;4.82;;
21430;SDS011;10876;49.038;10.608;2023-07-24T05:34:15;11.20;;;5.45;;
21430;SDS011;10876;49.038;10.608;2023-07-24T05:36:41;13.23;;;5.80;;
21430;SDS011;10876;49.038;10.608;2023-07-24T05:39:08;9.73;;;5.43;;
21430;SDS011;10876;49.038;10.608;2023-07-24T05:41:35;9.35;;;4.90;;
21430;SDS011;10876;49.038;10.608;2023-07-24T05:44:03;11.18;;;5.55;;
21430;SDS011;10876;49.038;10.608;2023-07-24T05:46:30;9.32;;;5.40;;
21430;SDS011;10876;49.038;10.608;2023-07-24T05:48:58;11.07;;;5.68;;
21430;SDS011;10876;49.038;10.608;2023-07-24T05:51:26;12.07;;;5.85;;
21430;SDS011;10876;49.038;10.608;2023-07-24T05:53:53;10.48;;;5.82;;
21430;SDS011;10876;49.038;10.608;2023-07-24T05:56:19;11.00;;;5.60;;
21430;SDS011;10876;49.038;10.608;2023-07-24T05:58:46;10.73;;;5.85;;
21430;SDS011;10876;49.038;10.608;2023-07-24T06:01:14;10.38;;;5.70;;
21430;SDS011;10876;49.038;10.608;2023-07-24T06:03:41;15.20;;;5.63;;
21430;SDS011;10876;49.038;10.608;2023-07-24T06:06:07;11.30;;;5.82;;
21430;SDS011;10876;49.038;10.608;2023-07-24T06:08:34;12.00;;;5.90;;
21430;SDS011;10876;49.038;10.608;2023-07-24T06:11:01;10.88;;;5.78;;
21430;SDS011;10876;49.038;10.608;2023-07-24T06:13:28;10.57;;;6.03;;
21430;SDS011;10876;49.038;10.608;2023-07-24T06:15:54;10.95;;;5.70;;
21430;SDS011;10876;49.038;10.608;2023-07-24T06:18:22;11.27;;;5.85;;
21430;SDS011;10876;49.038;10.608;2023-07-24T06:20:52;12.30;;;6.25;;
21430;SDS011;10876;49.038;10.608;2023-07-24T06:23:18;11.32;;;6.13;;
21430;SDS011;10876;49.038;10.608;2023-07-24T06:25:45;12.25;;;6.40;;
21430;SDS011;10876;49.038;10.608;2023-07-24T06:28:12;13.75;;;6.63;;
21430;SDS011;10876;49.038;10.608;2023-07-24T06:30:38;11.27;;;5.75;;
21430;SDS011;10876;49.038;10.608;2023-07-24T06:33:05;10.10;;;6.03;;
21430;SDS011;10876;49.038;10.608;2023-07-24T06:35:33;12.32;;;6.10;;
21430;SDS011;10876;49.038;10.608;2023-07-24T06:38:00;11.95;;;6.20;;
21430;SDS011;10876;49.038;10.608;2023-07-24T06:40:27;14.35;;;6.47;;
21430;SDS011;10876;49.038;10.608;2023-07-24T06:42:53;10.40;;;6.03;;
21430;SDS011;10876;49.038;10.608;2023-07-24T06:45:20;16.42;;;6.13;;
21430;SDS011;10876;49.038;10.608;2023-07-24T06:47:47;11.25;;;5.93;;
21430;SDS011;10876;49.038;10.608;2023-07-24T06:50:13;12.38;;;5.90;;
21430;SDS011;10876;49.038;10.608;2023-07-24T06:52:41;12.18;;;5.80;;
21430;SDS011;10876;49.038;10.608;2023-07-24T06:55:08;11.13;;;6.05;;
21430;SDS011;10876;49.038;10.608;2023-07-24T06:57:35;15.25;;;6.30;;
21430;SDS011;10876;49.038;10.608;2023-07-24T07:00:01;13.07;;;5.78;;
21430;SDS011;10876;49.038;10.608;2023-07-24T07:02:28;12.60;;;6.22;;
21430;SDS011;10876;49.038;10.608;2023-07-24T07:04:55;11.63;;;6.03;;
21430;SDS011;10876;49.038;10.608;2023-07-24T07:07:21;11.95;;;6.55;;
21430;SDS011;10876;49.038;10.608;2023-07-24T07:09:49;13.05;;;6.18;;
21430;SDS011;10876;49.038;10.608;2023-07-24T07:12:16;11.00;;;5.90;;
21430;SDS011;10876;49.038;10.608;2023-07-24T07:14:43;14.02;;;7.00;;
21430;SDS011;10876;49.038;10.608;2023-07-24T07:17:09;15.23;;;7.72;;
21430;SDS011;10876;49.038;10.608;2023-07-24T07:19:36;13.43;;;7.10;;
21430;SDS011;10876;49.038;10.608;2023-07-24T07:22:03;14.35;;;6.50;;
21430;SDS011;10876;49.038;10.608;2023-07-24T07:24:30;13.52;;;7.03;;
21430;SDS011;10876;49.038;10.608;2023-07-24T07:26:58;15.80;;;7.25;;
21430;SDS011;10876;49.038;10.608;2023-07-24T07:29:25;12.98;;;6.28;;
21430;SDS011;10876;49.038;10.608;2023-07-24T07:31:51;16.00;;;7.22;;
21430;SDS011;10876;49.038;10.608;2023-07-24T07:34:18;14.65;;;7.50;;
21430;SDS011;10876;49.038;10.608;2023-07-24T07:36:45;13.95;;;6.65;;
21430;SDS011;10876;49.038;10.608;2023-07-24T07:39:11;12.32;;;7.28;;
21430;SDS011;10876;49.038;10.608;2023-07-24T07:41:38;12.93;;;7.03;;
21430;SDS011;10876;49.038;10.608;2023-07-24T07:44:06;12.32;;;6.47;;
21430;SDS011;10876;49.038;10.608;2023-07-24T07:46:33;11.50;;;6.32;;
21430;SDS011;10876;49.038;10.608;2023-07-24T07:48:59;13.65;;;6.28;;
21430;SDS011;10876;49.038;10.608;2023-07-24T07:51:26;11.23;;;6.13;;
21430;SDS011;10876;49.038;10.608;2023-07-24T07:53:53;12.50;;;6.65;;
21430;SDS011;10876;49.038;10.608;2023-07-24T07:56:19;11.15;;;6.28;;
21430;SDS011;10876;49.038;10.608;2023-07-24T07:58:46;13.73;;;6.90;;
21430;SDS011;10876;49.038;10.608;2023-07-24T08:01:15;11.80;;;6.40;;
21430;SDS011;10876;49.038;10.608;2023-07-24T08:03:42;12.60;;;6.18;;
21430;SDS011;10876;49.038;10.608;2023-07-24T08:06:08;11.85;;;6.20;;
21430;SDS011;10876;49.038;10.608;2023-07-24T08:08:35;11.07;;;6.22;;
21430;SDS011;10876;49.038;10.608;2023-07-24T08:11:03;14.93;;;6.80;;
21430;SDS011;10876;49.038;10.608;2023-07-24T08:13:31;12.23;;;6.18;;
21430;SDS011;10876;49.038;10.608;2023-07-24T08:15:57;12.23;;;6.22;;
21430;SDS011;10876;49.038;10.608;2023-07-24T08:18:30;9.95;;;5.63;;
21430;SDS011;10876;49.038;10.608;2023-07-24T08:20:56;12.73;;;6.03;;
21430;SDS011;10876;49.038;10.608;2023-07-24T08:23:23;12.43;;;6.47;;
21430;SDS011;10876;49.038;10.608;2023-07-24T08:25:53;12.10;;;6.60;;
21430;SDS011;10876;49.038;10.608;2023-07-24T08:28:20;12.98;;;6.65;;
21430;SDS011;10876;49.038;10.608;2023-07-24T08:30:55;11.10;;;5.75;;
21430;SDS011;10876;49.038;10.608;2023-07-24T08:33:22;9.68;;;6.13;;
21430;SDS011;10876;49.038;10.608;2023-07-24T08:35:58;12.10;;;6.30;;
21430;SDS011;10876;49.038;10.608;2023-07-24T08:38:25;13.80;;;5.90;;
21430;SDS011;10876;49.038;10.608;2023-07-24T08:40:59;13.40;;;6.20;;
21430;SDS011;10876;49.038;10.608;2023-07-24T08:43:26;9.43;;;6.07;;
21430;SDS011;10876;49.038;10.608;2023-07-24T08:45:54;11.38;;;5.95;;
21430;SDS011;10876;49.038;10.608;2023-07-24T08:48:21;11.10;;;5.80;;
21430;SDS011;10876;49.038;10.608;2023-07-24T08:50:49;11.57;;;5.97;;
21430;SDS011;10876;49.038;10.608;2023-07-24T08:53:20;11.05;;;5.60;;
21430;SDS011;10876;49.038;10.608;2023-07-24T08:55:47;12.80;;;6.63;;
21430;SDS011;10876;49.038;10.608;2023-07-24T08:58:15;9.63;;;5.90;;
21430;SDS011;10876;49.038;10.608;2023-07-24T09:00:42;15.60;;;5.80;;
21430;SDS011;10876;49.038;10.608;2023-07-24T09:03:09;10.30;;;5.97;;
21430;SDS011;10876;49.038;10.608;2023-07-24T09:05:36;10.30;;;6.00;;
21430;SDS011;10876;49.038;10.608;2023-07-24T09:08:03;13.05;;;6.55;;
21430;SDS011;10876;49.038;10.608;2023-07-24T09:10:31;10.38;;;6.13;;
21430;SDS011;10876;49.038;10.608;2023-07-24T09:12:58;11.02;;;5.47;;
21430;SDS011;10876;49.038;10.608;2023-07-24T09:15:25;12.13;;;5.88;;
21430;SDS011;10876;49.038;10.608;2023-07-24T09:17:52;10.70;;;5.97;;
21430;SDS011;10876;49.038;10.608;2023-07-24T09:20:19;11.60;;;5.97;;
21430;SDS011;10876;49.038;10.608;2023-07-24T09:22:49;10.40;;;5.97;;
21430;SDS011;10876;49.038;10.608;2023-07-24T09:25:16;11.38;;;5.80;;
21430;SDS011;10876;49.038;10.608;2023-07-24T09:27:44;14.70;;;7.00;;
21430;SDS011;10876;49.038;10.608;2023-07-24T09:30:12;12.95;;;6.28;;
21430;SDS011;10876;49.038;10.608;2023-07-24T09:32:39;9.90;;;6.10;;
21430;SDS011;10876;49.038;10.608;2023-07-24T09:35:15;8.90;;;5.78;;
21430;SDS011;10876;49.038;10.608;2023-07-24T09:37:43;9.18;;;5.43;;
21430;SDS011;10876;49.038;10.608;2023-07-24T09:40:10;12.63;;;5.63;;
21430;SDS011;10876;49.038;10.608;2023-07-24T09:42:38;10.15;;;5.47;;
21430;SDS011;10876;49.038;10.608;2023-07-24T09:45:08;9.57;;;5.38;;
21430;SDS011;10876;49.038;10.608;2023-07-24T09:47:35;11.40;;;5.95;;
21430;SDS011;10876;49.038;10.608;2023-07-24T09:50:03;10.15;;;5.57;;
21430;SDS011;10876;49.038;10.608;2023-07-24T09:52:30;12.50;;;6.40;;
21430;SDS011;10876;49.038;10.608;2023-07-24T09:54:59;7.40;;;4.88;;
21430;SDS011;10876;49.038;10.608;2023-07-24T09:57:30;8.70;;;5.03;;
21430;SDS011;10876;49.038;10.608;2023-07-24T09:59:58;9.63;;;5.30;;
21430;SDS011;10876;49.038;10.608;2023-07-24T10:02:29;7.90;;;4.97;;
21430;SDS011;10876;49.038;10.608;2023-07-24T10:04:56;8.10;;;4.55;;
21430;SDS011;10876;49.038;10.608;2023-07-24T10:07:23;10.05;;;5.03;;
21430;SDS011;10876;49.038;10.608;2023-07-24T10:09:50;8.00;;;5.15;;
21430;SDS011;10876;49.038;10.608;2023-07-24T10:12:18;7.55;;;4.80;;
21430;SDS011;10876;49.038;10.608;2023-07-24T10:14:45;9.50;;;5.90;;
21430;SDS011;10876;49.038;10.608;2023-07-24T10:17:13;7.45;;;4.68;;
21430;SDS011;10876;49.038;10.608;2023-07-24T10:19:41;8.98;;;5.25;;
21430;SDS011;10876;49.038;10.608;2023-07-24T10:22:09;9.25;;;5.28;;
21430;SDS011;10876;49.038;10.608;2023-07-24T10:24:43;9.27;;;4.85;;
21430;SDS011;10876;49.038;10.608;2023-07-24T10:27:10;11.27;;;5.57;;
21430;SDS011;10876;49.038;10.608;2023-07-24T10:29:37;10.45;;;5.45;;
21430;SDS011;10876;49.038;10.608;2023-07-24T10:32:04;8.13;;;5.10;;
21430;SDS011;10876;49.038;10.608;2023-07-24T10:34:43;8.40;;;4.85;;
21430;SDS011;10876;49.038;10.608;2023-07-24T10:37:10;9.80;;;5.60;;
21430;SDS011;10876;49.038;10.608;2023-07-24T10:39:37;9.15;;;5.32;;
21430;SDS011;10876;49.038;10.608;2023-07-24T10:42:06;9.98;;;5.13;;
21430;SDS011;10876;49.038;10.608;2023-07-24T10:44:34;9.52;;;5.47;;
21430;SDS011;10876;49.038;10.608;2023-07-24T10:47:01;11.43;;;5.60;;
21430;SDS011;10876;49.038;10.608;2023-07-24T10:49:28;9.40;;;5.43;;
21430;SDS011;10876;49.038;10.608;2023-07-24T10:51:57;9.23;;;5.38;;
21430;SDS011;10876;49.038;10.608;2023-07-24T10:54:23;9.90;;;5.72;;
21430;SDS011;10876;49.038;10.608;2023-07-24T10:56:57;9.05;;;5.15;;
21430;SDS011;10876;49.038;10.608;2023-07-24T10:59:34;9.02;;;5.10;;
21430;SDS011;10876;49.038;10.608;2023-07-24T11:02:02;8.23;;;5.20;;
21430;SDS011;10876;49.038;10.608;2023-07-24T11:04:30;8.65;;;5.05;;
21430;SDS011;10876;49.038;10.608;2023-07-24T11:06:58;8.18;;;4.90;;
21430;SDS011;10876;49.038;10.608;2023-07-24T11:09:33;8.07;;;4.80;;
21430;SDS011;10876;49.038;10.608;2023-07-24T11:12:08;7.80;;;4.55;;
21430;SDS011;10876;49.038;10.608;2023-07-24T11:14:44;10.45;;;5.20;;
21430;SDS011;10876;49.038;10.608;2023-07-24T11:17:12;7.97;;;4.65;;
21430;SDS011;10876;49.038;10.608;2023-07-24T11:19:39;9.15;;;4.97;;
21430;SDS011;10876;49.038;10.608;2023-07-24T11:22:07;8.20;;;4.63;;
21430;SDS011;10876;49.038;10.608;2023-07-24T11:24:41;7.38;;;4.40;;
21430;SDS011;10876;49.038;10.608;2023-07-24T11:27:12;8.98;;;4.40;;
21430;SDS011;10876;49.038;10.608;2023-07-24T11:29:40;9.23;;;4.97;;
21430;SDS011;10876;49.038;10.608;2023-07-24T11:32:07;8.73;;;5.35;;
21430;SDS011;10876;49.038;10.608;2023-07-24T11:34:36;8.70;;;4.55;;
21430;SDS011;10876;49.038;10.608;2023-07-24T11:37:03;8.48;;;4.47;;
21430;SDS011;10876;49.038;10.608;2023-07-24T11:39:32;7.65;;;4.53;;
21430;SDS011;10876;49.038;10.608;2023-07-24T11:41:59;14.27;;;4.35;;
21430;SDS011;10876;49.038;10.608;2023-07-24T11:44:28;10.95;;;4.43;;
21430;SDS011;10876;49.038;10.608;2023-07-24T11:47:01;7.10;;;4.35;;
21430;SDS011;10876;49.038;10.608;2023-07-24T11:49:29;9.85;;;4.80;;
21430;SDS011;10876;49.038;10.608;2023-07-24T11:52:00;8.57;;;4.43;;
21430;SDS011;10876;49.038;10.608;2023-07-24T11:54:27;8.10;;;4.28;;
21430;SDS011;10876;49.038;10.608;2023-07-24T11:56:55;7.63;;;4.20;;
21430;SDS011;10876;49.038;10.608;2023-07-24T11:59:22;6.05;;;3.95;;
21430;SDS011;10876;49.038;10.608;2023-07-24T12:01:51;6.82;;;4.00;;
21430;SDS011;10876;49.038;10.608;2023-07-24T12:04:17;10.82;;;4.50;;
21430;SDS011;10876;49.038;10.608;2023-07-24T12:06:44;7.00;;;4.32;;
21430;SDS011;10876;49.038;10.608;2023-07-24T12:09:11;8.35;;;3.90;;
21430;SDS011;10876;49.038;10.608;2023-07-24T12:11:39;7.97;;;3.75;;
21430;SDS011;10876;49.038;10.608;2023-07-24T12:14:07;7.93;;;4.70;;
21430;SDS011;10876;49.038;10.608;2023-07-24T12:16:34;6.30;;;3.90;;
21430;SDS011;10876;49.038;10.608;2023-07-24T12:19:01;9.00;;;4.47;;
21430;SDS011;10876;49.038;10.608;2023-07-24T12:21:28;6.15;;;3.58;;
21430;SDS011;10876;49.038;10.608;2023-07-24T12:23:55;7.50;;;4.10;;
21430;SDS011;10876;49.038;10.608;2023-07-24T12:26:21;9.07;;;4.68;;
21430;SDS011;10876;49.038;10.608;2023-07-24T12:28:50;8.48;;;4.57;;
21430;SDS011;10876;49.038;10.608;2023-07-24T12:31:18;6.15;;;3.70;;
21430;SDS011;10876;49.038;10.608;2023-07-24T12:33:45;8.63;;;3.92;;
21430;SDS011;10876;49.038;10.608;2023-07-24T12:36:11;10.82;;;4.70;;
21430;SDS011;10876;49.038;10.608;2023-07-24T12:38:38;8.30;;;4.80;;
21430;SDS011;10876;49.038;10.608;2023-07-24T12:41:05;7.43;;;4.43;;
21430;SDS011;10876;49.038;10.608;2023-07-24T12:43:31;8.32;;;4.93;;
21430;SDS011;10876;49.038;10.608;2023-07-24T12:45:58;9.75;;;5.55;;
21430;SDS011;10876;49.038;10.608;2023-07-24T12:48:26;7.53;;;4.53;;
21430;SDS011;10876;49.038;10.608;2023-07-24T12:50:53;8.55;;;5.00;;
21430;SDS011;10876;49.038;10.608;2023-07-24T12:53:21;8.02;;;4.38;;
21430;SDS011;10876;49.038;10.608;2023-07-24T12:55:48;10.60;;;5.38;;
21430;SDS011;10876;49.038;10.608;2023-07-24T12:58:15;8.43;;;4.95;;
21430;SDS011;10876;49.038;10.608;2023-07-24T13:00:41;14.10;;;4.80;;
21430;SDS011;10876;49.038;10.608;2023-07-24T13:03:08;9.15;;;5.18;;
21430;SDS011;10876;49.038;10.608;2023-07-24T13:05:36;10.80;;;4.82;;
21430;SDS011;10876;49.038;10.608;2023-07-24T13:08:04;8.48;;;4.60;;
21430;SDS011;10876;49.038;10.608;2023-07-24T13:10:30;8.98;;;4.88;;
21430;SDS011;10876;49.038;10.608;2023-07-24T13:12:57;10.93;;;5.30;;
21430;SDS011;10876;49.038;10.608;2023-07-24T13:15:26;9.43;;;5.00;;
21430;SDS011;10876;49.038;10.608;2023-07-24T13:17:54;9.05;;;4.78;;
21430;SDS011;10876;49.038;10.608;2023-07-24T13:20:21;8.50;;;4.97;;
21430;SDS011;10876;49.038;10.608;2023-07-24T13:22:49;9.52;;;4.38;;
21430;SDS011;10876;49.038;10.608;2023-07-24T13:25:16;7.75;;;4.65;;
21430;SDS011;10876;49.038;10.608;2023-07-24T13:27:42;11.82;;;5.07;;
21430;SDS011;10876;49.038;10.608;2023-07-24T13:30:09;8.70;;;5.28;;
21430;SDS011;10876;49.038;10.608;2023-07-24T13:32:37;8.63;;;4.65;;
21430;SDS011;10876;49.038;10.608;2023-07-24T13:35:04;6.82;;;4.28;;
21430;SDS011;10876;49.038;10.608;2023-07-24T13:37:31;9.57;;;5.03;;
21430;SDS011;10876;49.038;10.608;2023-07-24T13:39:59;8.75;;;4.30;;
21430;SDS011;10876;49.038;10.608;2023-07-24T13:42:26;6.55;;;4.03;;
21430;SDS011;10876;49.038;10.608;2023-07-24T13:44:53;6.90;;;4.07;;
21430;SDS011;10876;49.038;10.608;2023-07-24T13:47:19;7.40;;;4.22;;
21430;SDS011;10876;49.038;10.608;2023-07-24T13:49:47;7.85;;;4.25;;
21430;SDS011;10876;49.038;10.608;2023-07-24T13:52:13;7.43;;;4.00;;
21430;SDS011;10876;49.038;10.608;2023-07-24T13:54:40;7.75;;;4.20;;
21430;SDS011;10876;49.038;10.608;2023-07-24T13:57:08;7.05;;;3.80;;
21430;SDS011;10876;49.038;10.608;2023-07-24T13:59:35;6.28;;;3.70;;
21430;SDS011;10876;49.038;10.608;2023-07-24T14:02:04;7.05;;;3.72;;
21430;SDS011;10876;49.038;10.608;2023-07-24T14:04:31;5.95;;;3.67;;
21430;SDS011;10876;49.038;10.608;2023-07-24T14:06:58;4.85;;;3.30;;
21430;SDS011;10876;49.038;10.608;2023-07-24T14:09:24;6.18;;;3.80;;
21430;SDS011;10876;49.038;10.608;2023-07-24T14:11:51;6.00;;;3.60;;
21430;SDS011;10876;49.038;10.608;2023-07-24T14:14:19;6.80;;;3.85;;
21430;SDS011;10876;49.038;10.608;2023-07-24T14:16:46;6.03;;;3.78;;
21430;SDS011;10876;49.038;10.608;2023-07-24T14:19:13;6.53;;;3.90;;
21430;SDS011;10876;49.038;10.608;2023-07-24T14:21:40;5.68;;;3.65;;
21430;SDS011;10876;49.038;10.608;2023-07-24T14:24:06;5.38;;;3.55;;
21430;SDS011;10876;49.038;10.608;2023-07-24T14:26:33;6.38;;;3.75;;
21430;SDS011;10876;49.038;10.608;2023-07-24T14:29:01;3.75;;;2.78;;
21430;SDS011;10876;49.038;10.608;2023-07-24T14:31:29;6.28;;;3.20;;
21430;SDS011;10876;49.038;10.608;2023-07-24T14:33:56;5.22;;;3.38;;